sensor_id;sensor_type;location;lat;lon;timestamp;temperature;humidity
70548;DHT22;58099;43.406;3.698;2023-03-01T10:32:18;13.20;84.10
70548;DHT22;58099;43.406;3.698;2023-03-01T10:34:44;13.30;84.50
70548;DHT22;58099;43.406;3.698;2023-03-01T10:37:15;13.50;84.60
70548;DHT22;58099;43.406;3.698;2023-03-01T10:40:03;13.90;84.30
70548;DHT22;58099;43.406;3.698;2023-03-01T10:42:37;14.00;83.90
70548;DHT22;58099;43.406;3.698;2023-03-01T10:50:32;14.20;83.10
70548;DHT22;58099;43.406;3.698;2023-03-01T10:53:00;14.40;82.60
70548;DHT22;58099;43.406;3.698;2023-03-01T10:55:38;14.60;82.90
70548;DHT22;58099;43.406;3.698;2023-03-01T11:00:50;14.80;81.70
70548;DHT22;58099;43.406;3.698;2023-03-01T11:03:21;14.90;81.10
70548;DHT22;58099;43.406;3.698;2023-03-01T11:06:21;14.90;81.80
70548;DHT22;58099;43.406;3.698;2023-03-01T11:08:49;15.30;82.10
70548;DHT22;58099;43.406;3.698;2023-03-01T11:11:22;16.10;81.00
70548;DHT22;58099;43.406;3.698;2023-03-01T11:13:56;16.00;80.30
70548;DHT22;58099;43.406;3.698;2023-03-01T11:16:37;15.60;80.30
70548;DHT22;58099;43.406;3.698;2023-03-01T11:24:19;15.80;79.80
70548;DHT22;58099;43.406;3.698;2023-03-01T11:26:52;16.00;80.40
70548;DHT22;58099;43.406;3.698;2023-03-01T11:29:39;16.00;79.60
70548;DHT22;58099;43.406;3.698;2023-03-01T11:32:08;15.80;79.10
70548;DHT22;58099;43.406;3.698;2023-03-01T11:34:42;16.00;79.60
70548;DHT22;58099;43.406;3.698;2023-03-01T11:37:31;16.30;79.50
70548;DHT22;58099;43.406;3.698;2023-03-01T11:40:19;16.40;78.90
70548;DHT22;58099;43.406;3.698;2023-03-01T11:45:23;15.20;79.70
70548;DHT22;58099;43.406;3.698;2023-03-01T11:50:41;16.30;79.50
70548;DHT22;58099;43.406;3.698;2023-03-01T11:55:59;16.60;78.70
70548;DHT22;58099;43.406;3.698;2023-03-01T12:10:26;18.20;76.50
70548;DHT22;58099;43.406;3.698;2023-03-01T12:30:00;16.80;76.70
70548;DHT22;58099;43.406;3.698;2023-03-01T12:32:40;16.70;76.60
70548;DHT22;58099;43.406;3.698;2023-03-01T12:51:21;16.30;77.50
70548;DHT22;58099;43.406;3.698;2023-03-01T12:53:49;16.60;77.00
70548;DHT22;58099;43.406;3.698;2023-03-01T12:56:18;16.60;77.30
70548;DHT22;58099;43.406;3.698;2023-03-01T13:07:30;17.20;78.10
70548;DHT22;58099;43.406;3.698;2023-03-01T13:17:48;17.80;77.00
70548;DHT22;58099;43.406;3.698;2023-03-01T13:20:20;17.50;76.00
70548;DHT22;58099;43.406;3.698;2023-03-01T13:22:47;17.50;77.90
70548;DHT22;58099;43.406;3.698;2023-03-01T13:25:17;17.60;76.80
70548;DHT22;58099;43.406;3.698;2023-03-01T13:27:44;18.00;77.10
70548;DHT22;58099;43.406;3.698;2023-03-01T13:30:40;18.20;76.40
70548;DHT22;58099;43.406;3.698;2023-03-01T13:35:51;17.40;76.00
70548;DHT22;58099;43.406;3.698;2023-03-01T13:38:47;17.40;76.20
70548;DHT22;58099;43.406;3.698;2023-03-01T13:41:48;17.50;76.40
70548;DHT22;58099;43.406;3.698;2023-03-01T13:44:25;17.80;75.90
70548;DHT22;58099;43.406;3.698;2023-03-01T13:46:52;18.00;75.90
70548;DHT22;58099;43.406;3.698;2023-03-01T13:49:22;18.30;75.30
70548;DHT22;58099;43.406;3.698;2023-03-01T13:51:50;18.20;75.10
70548;DHT22;58099;43.406;3.698;2023-03-01T13:54:25;18.30;75.00
70548;DHT22;58099;43.406;3.698;2023-03-01T13:56:54;18.40;75.30
70548;DHT22;58099;43.406;3.698;2023-03-01T13:59:22;18.40;74.30
70548;DHT22;58099;43.406;3.698;2023-03-01T14:01:59;18.40;74.10
70548;DHT22;58099;43.406;3.698;2023-03-01T14:04:28;18.40;74.70
70548;DHT22;58099;43.406;3.698;2023-03-01T14:07:12;18.10;74.50
70548;DHT22;58099;43.406;3.698;2023-03-01T14:09:43;17.60;74.60
70548;DHT22;58099;43.406;3.698;2023-03-01T14:15:35;17.80;75.00
70548;DHT22;58099;43.406;3.698;2023-03-01T14:18:29;17.70;75.00
70548;DHT22;58099;43.406;3.698;2023-03-01T14:20:59;17.60;74.70
70548;DHT22;58099;43.406;3.698;2023-03-01T14:23:24;17.90;75.00
70548;DHT22;58099;43.406;3.698;2023-03-01T14:25:54;17.80;74.60
70548;DHT22;58099;43.406;3.698;2023-03-01T14:28:30;17.90;75.40
70548;DHT22;58099;43.406;3.698;2023-03-01T14:30:58;17.70;75.60
70548;DHT22;58099;43.406;3.698;2023-03-01T14:33:35;17.90;75.50
70548;DHT22;58099;43.406;3.698;2023-03-01T14:36:08;18.00;75.10
70548;DHT22;58099;43.406;3.698;2023-03-01T14:38:35;18.00;75.60
70548;DHT22;58099;43.406;3.698;2023-03-01T14:41:25;17.80;75.00
70548;DHT22;58099;43.406;3.698;2023-03-01T14:46:26;17.60;75.50
70548;DHT22;58099;43.406;3.698;2023-03-01T14:48:56;17.50;74.80
70548;DHT22;58099;43.406;3.698;2023-03-01T14:51:23;17.40;74.80
70548;DHT22;58099;43.406;3.698;2023-03-01T14:53:49;17.50;75.00
70548;DHT22;58099;43.406;3.698;2023-03-01T14:56:16;17.30;75.50
70548;DHT22;58099;43.406;3.698;2023-03-01T14:58:46;17.30;75.00
70548;DHT22;58099;43.406;3.698;2023-03-01T15:01:16;17.50;75.10
70548;DHT22;58099;43.406;3.698;2023-03-01T15:03:44;17.50;74.30
70548;DHT22;58099;43.406;3.698;2023-03-01T15:06:15;17.30;74.40
70548;DHT22;58099;43.406;3.698;2023-03-01T15:08:47;17.30;74.60
70548;DHT22;58099;43.406;3.698;2023-03-01T15:13:40;17.10;75.10
70548;DHT22;58099;43.406;3.698;2023-03-01T15:16:12;17.10;75.40
70548;DHT22;58099;43.406;3.698;2023-03-01T15:18:48;16.80;75.60
70548;DHT22;58099;43.406;3.698;2023-03-01T15:21:23;17.00;76.00
70548;DHT22;58099;43.406;3.698;2023-03-01T15:23:55;16.70;76.80
70548;DHT22;58099;43.406;3.698;2023-03-01T15:26:37;16.50;77.10
70548;DHT22;58099;43.406;3.698;2023-03-01T15:29:04;16.30;77.50
70548;DHT22;58099;43.406;3.698;2023-03-01T15:31:42;16.10;77.10
70548;DHT22;58099;43.406;3.698;2023-03-01T15:34:25;16.00;77.50
70548;DHT22;58099;43.406;3.698;2023-03-01T15:36:53;16.10;77.40
70548;DHT22;58099;43.406;3.698;2023-03-01T15:39:42;16.20;77.00
70548;DHT22;58099;43.406;3.698;2023-03-01T15:42:13;16.00;76.90
70548;DHT22;58099;43.406;3.698;2023-03-01T15:47:51;16.00;78.20
70548;DHT22;58099;43.406;3.698;2023-03-01T15:50:22;16.20;78.30
70548;DHT22;58099;43.406;3.698;2023-03-01T15:52:49;16.10;78.40
70548;DHT22;58099;43.406;3.698;2023-03-01T15:55:24;16.00;78.70
70548;DHT22;58099;43.406;3.698;2023-03-01T15:58:12;15.90;79.00
70548;DHT22;58099;43.406;3.698;2023-03-01T16:00:39;15.80;77.60
70548;DHT22;58099;43.406;3.698;2023-03-01T16:03:06;15.70;78.00
70548;DHT22;58099;43.406;3.698;2023-03-01T16:05:34;15.60;78.90
70548;DHT22;58099;43.406;3.698;2023-03-01T16:08:01;15.60;80.00
70548;DHT22;58099;43.406;3.698;2023-03-01T16:10:28;15.40;79.80
70548;DHT22;58099;43.406;3.698;2023-03-01T16:12:54;15.20;79.60
70548;DHT22;58099;43.406;3.698;2023-03-01T16:15:26;15.30;79.60
70548;DHT22;58099;43.406;3.698;2023-03-01T16:17:52;15.10;79.70
70548;DHT22;58099;43.406;3.698;2023-03-01T16:20:18;15.10;80.40
70548;DHT22;58099;43.406;3.698;2023-03-01T16:22:45;15.00;81.40
70548;DHT22;58099;43.406;3.698;2023-03-01T16:25:14;14.70;81.90
70548;DHT22;58099;43.406;3.698;2023-03-01T16:27:44;14.50;81.60
70548;DHT22;58099;43.406;3.698;2023-03-01T16:30:11;14.30;81.30
70548;DHT22;58099;43.406;3.698;2023-03-01T16:32:42;14.20;81.80
70548;DHT22;58099;43.406;3.698;2023-03-01T16:35:10;14.10;81.40
70548;DHT22;58099;43.406;3.698;2023-03-01T16:37:36;14.00;82.50
70548;DHT22;58099;43.406;3.698;2023-03-01T16:40:03;13.90;83.00
70548;DHT22;58099;43.406;3.698;2023-03-01T16:42:34;13.80;82.80
70548;DHT22;58099;43.406;3.698;2023-03-01T16:45:00;13.70;83.00
70548;DHT22;58099;43.406;3.698;2023-03-01T16:47:27;13.60;83.30
70548;DHT22;58099;43.406;3.698;2023-03-01T16:49:53;13.50;83.50
70548;DHT22;58099;43.406;3.698;2023-03-01T16:52:19;13.50;83.90
70548;DHT22;58099;43.406;3.698;2023-03-01T16:54:45;13.30;84.10
70548;DHT22;58099;43.406;3.698;2023-03-01T16:57:11;13.10;84.00
70548;DHT22;58099;43.406;3.698;2023-03-01T16:59:37;13.00;84.40
70548;DHT22;58099;43.406;3.698;2023-03-01T17:02:08;12.90;84.60
70548;DHT22;58099;43.406;3.698;2023-03-01T17:04:36;12.70;85.70
70548;DHT22;58099;43.406;3.698;2023-03-01T17:07:02;12.50;85.40
70548;DHT22;58099;43.406;3.698;2023-03-01T17:09:28;12.40;85.80
70548;DHT22;58099;43.406;3.698;2023-03-01T17:11:54;12.30;85.40
70548;DHT22;58099;43.406;3.698;2023-03-01T17:14:20;12.20;86.00
70548;DHT22;58099;43.406;3.698;2023-03-01T17:16:46;12.10;86.20
70548;DHT22;58099;43.406;3.698;2023-03-01T17:19:12;12.20;86.20
70548;DHT22;58099;43.406;3.698;2023-03-01T17:21:43;12.10;86.50
70548;DHT22;58099;43.406;3.698;2023-03-01T17:24:09;11.90;86.30
70548;DHT22;58099;43.406;3.698;2023-03-01T17:26:34;11.80;86.30
70548;DHT22;58099;43.406;3.698;2023-03-01T17:29:01;11.70;86.50
70548;DHT22;58099;43.406;3.698;2023-03-01T17:31:26;11.70;86.60
70548;DHT22;58099;43.406;3.698;2023-03-01T17:33:52;11.70;86.70
70548;DHT22;58099;43.406;3.698;2023-03-01T17:36:18;11.50;86.60
70548;DHT22;58099;43.406;3.698;2023-03-01T17:38:43;11.40;86.80
70548;DHT22;58099;43.406;3.698;2023-03-01T17:41:10;11.30;87.20
70548;DHT22;58099;43.406;3.698;2023-03-01T17:43:36;11.30;87.40
70548;DHT22;58099;43.406;3.698;2023-03-01T17:46:02;11.20;87.60
70548;DHT22;58099;43.406;3.698;2023-03-01T17:48:28;11.10;87.90
70548;DHT22;58099;43.406;3.698;2023-03-01T17:50:54;11.10;88.30
70548;DHT22;58099;43.406;3.698;2023-03-01T17:53:20;11.10;88.40
70548;DHT22;58099;43.406;3.698;2023-03-01T17:55:46;11.10;88.30
70548;DHT22;58099;43.406;3.698;2023-03-01T17:58:18;11.10;88.30
70548;DHT22;58099;43.406;3.698;2023-03-01T18:00:48;11.00;88.50
70548;DHT22;58099;43.406;3.698;2023-03-01T18:03:14;11.00;88.80
70548;DHT22;58099;43.406;3.698;2023-03-01T18:05:39;10.90;89.50
70548;DHT22;58099;43.406;3.698;2023-03-01T18:08:05;10.80;89.60
70548;DHT22;58099;43.406;3.698;2023-03-01T18:10:32;10.70;89.90
70548;DHT22;58099;43.406;3.698;2023-03-01T18:13:01;10.70;89.70
70548;DHT22;58099;43.406;3.698;2023-03-01T18:15:27;10.70;90.10
70548;DHT22;58099;43.406;3.698;2023-03-01T18:17:53;10.60;90.00
70548;DHT22;58099;43.406;3.698;2023-03-01T18:20:19;10.50;90.10
70548;DHT22;58099;43.406;3.698;2023-03-01T18:22:47;10.50;90.00
70548;DHT22;58099;43.406;3.698;2023-03-01T18:25:15;10.40;90.00
70548;DHT22;58099;43.406;3.698;2023-03-01T18:27:41;10.40;90.20
70548;DHT22;58099;43.406;3.698;2023-03-01T18:30:07;10.30;90.10
70548;DHT22;58099;43.406;3.698;2023-03-01T18:32:33;10.30;90.10
70548;DHT22;58099;43.406;3.698;2023-03-01T18:34:59;10.20;90.10
70548;DHT22;58099;43.406;3.698;2023-03-01T18:37:25;10.20;90.20
70548;DHT22;58099;43.406;3.698;2023-03-01T18:39:51;10.10;90.30
70548;DHT22;58099;43.406;3.698;2023-03-01T18:42:17;10.10;90.40
70548;DHT22;58099;43.406;3.698;2023-03-01T18:44:45;10.00;90.50
70548;DHT22;58099;43.406;3.698;2023-03-01T18:47:11;9.90;90.40
70548;DHT22;58099;43.406;3.698;2023-03-01T18:49:37;10.10;90.40
70548;DHT22;58099;43.406;3.698;2023-03-01T18:52:03;10.10;90.50
70548;DHT22;58099;43.406;3.698;2023-03-01T18:54:29;10.10;90.90
70548;DHT22;58099;43.406;3.698;2023-03-01T18:56:54;10.00;91.30
70548;DHT22;58099;43.406;3.698;2023-03-01T18:59:20;9.90;91.20
70548;DHT22;58099;43.406;3.698;2023-03-01T19:01:46;9.90;90.90
70548;DHT22;58099;43.406;3.698;2023-03-01T19:04:12;9.90;90.50
70548;DHT22;58099;43.406;3.698;2023-03-01T19:06:37;9.90;90.50
70548;DHT22;58099;43.406;3.698;2023-03-01T19:09:04;9.90;90.80
70548;DHT22;58099;43.406;3.698;2023-03-01T19:11:31;9.90;91.60
70548;DHT22;58099;43.406;3.698;2023-03-01T19:13:58;9.90;92.10
70548;DHT22;58099;43.406;3.698;2023-03-01T19:16:26;9.80;92.40
70548;DHT22;58099;43.406;3.698;2023-03-01T19:18:55;9.80;92.80
70548;DHT22;58099;43.406;3.698;2023-03-01T19:21:24;9.70;93.10
70548;DHT22;58099;43.406;3.698;2023-03-01T19:23:51;9.70;93.30
70548;DHT22;58099;43.406;3.698;2023-03-01T19:26:19;9.60;93.60
70548;DHT22;58099;43.406;3.698;2023-03-01T19:28:46;9.70;93.70
70548;DHT22;58099;43.406;3.698;2023-03-01T19:31:17;9.60;93.70
70548;DHT22;58099;43.406;3.698;2023-03-01T19:33:43;9.60;93.70
70548;DHT22;58099;43.406;3.698;2023-03-01T19:36:10;9.70;93.80
70548;DHT22;58099;43.406;3.698;2023-03-01T19:38:38;9.80;93.70
70548;DHT22;58099;43.406;3.698;2023-03-01T19:41:06;9.80;93.70
70548;DHT22;58099;43.406;3.698;2023-03-01T19:43:32;9.80;93.70
70548;DHT22;58099;43.406;3.698;2023-03-01T19:45:57;9.80;93.70
70548;DHT22;58099;43.406;3.698;2023-03-01T19:48:23;9.70;93.60
70548;DHT22;58099;43.406;3.698;2023-03-01T19:50:51;9.60;93.20
70548;DHT22;58099;43.406;3.698;2023-03-01T19:53:17;9.50;92.80
70548;DHT22;58099;43.406;3.698;2023-03-01T19:55:43;9.40;93.10
70548;DHT22;58099;43.406;3.698;2023-03-01T19:58:09;9.40;93.10
70548;DHT22;58099;43.406;3.698;2023-03-01T20:00:37;9.30;93.20
70548;DHT22;58099;43.406;3.698;2023-03-01T20:03:04;9.30;93.30
70548;DHT22;58099;43.406;3.698;2023-03-01T20:05:36;9.20;93.30
70548;DHT22;58099;43.406;3.698;2023-03-01T20:08:04;9.20;93.50
70548;DHT22;58099;43.406;3.698;2023-03-01T20:10:31;9.10;93.20
70548;DHT22;58099;43.406;3.698;2023-03-01T20:12:57;9.10;93.30
70548;DHT22;58099;43.406;3.698;2023-03-01T20:15:23;9.10;93.50
70548;DHT22;58099;43.406;3.698;2023-03-01T20:17:49;9.20;93.70
70548;DHT22;58099;43.406;3.698;2023-03-01T20:20:15;9.10;93.70
70548;DHT22;58099;43.406;3.698;2023-03-01T20:22:41;9.00;93.80
70548;DHT22;58099;43.406;3.698;2023-03-01T20:25:07;9.10;94.00
70548;DHT22;58099;43.406;3.698;2023-03-01T20:27:33;9.00;93.80
70548;DHT22;58099;43.406;3.698;2023-03-01T20:29:59;9.00;93.60
70548;DHT22;58099;43.406;3.698;2023-03-01T20:32:25;9.00;93.40
70548;DHT22;58099;43.406;3.698;2023-03-01T20:34:51;9.10;93.80
70548;DHT22;58099;43.406;3.698;2023-03-01T20:37:19;9.10;93.50
70548;DHT22;58099;43.406;3.698;2023-03-01T20:39:47;9.10;93.40
70548;DHT22;58099;43.406;3.698;2023-03-01T20:42:13;9.00;93.30
70548;DHT22;58099;43.406;3.698;2023-03-01T20:44:38;9.00;93.60
70548;DHT22;58099;43.406;3.698;2023-03-01T20:47:09;9.10;93.80
70548;DHT22;58099;43.406;3.698;2023-03-01T20:49:35;9.10;93.80
70548;DHT22;58099;43.406;3.698;2023-03-01T20:52:01;9.10;93.70
70548;DHT22;58099;43.406;3.698;2023-03-01T20:54:26;9.10;93.60
70548;DHT22;58099;43.406;3.698;2023-03-01T20:56:53;9.20;93.70
70548;DHT22;58099;43.406;3.698;2023-03-01T20:59:19;9.20;93.60
70548;DHT22;58099;43.406;3.698;2023-03-01T21:01:44;9.10;93.70
70548;DHT22;58099;43.406;3.698;2023-03-01T21:04:10;9.10;93.60
70548;DHT22;58099;43.406;3.698;2023-03-01T21:06:37;9.10;93.70
70548;DHT22;58099;43.406;3.698;2023-03-01T21:09:03;9.10;93.70
70548;DHT22;58099;43.406;3.698;2023-03-01T21:11:29;9.00;93.80
70548;DHT22;58099;43.406;3.698;2023-03-01T21:13:55;9.00;94.00
70548;DHT22;58099;43.406;3.698;2023-03-01T21:16:21;9.10;94.20
70548;DHT22;58099;43.406;3.698;2023-03-01T21:18:47;9.00;94.30
70548;DHT22;58099;43.406;3.698;2023-03-01T21:21:16;9.10;94.40
70548;DHT22;58099;43.406;3.698;2023-03-01T21:23:43;9.10;94.60
70548;DHT22;58099;43.406;3.698;2023-03-01T21:26:11;9.10;94.70
70548;DHT22;58099;43.406;3.698;2023-03-01T21:28:38;9.10;95.10
70548;DHT22;58099;43.406;3.698;2023-03-01T21:33:39;9.00;94.80
70548;DHT22;58099;43.406;3.698;2023-03-01T21:36:07;9.00;94.50
70548;DHT22;58099;43.406;3.698;2023-03-01T21:38:36;8.90;94.60
70548;DHT22;58099;43.406;3.698;2023-03-01T21:41:04;8.90;93.50
70548;DHT22;58099;43.406;3.698;2023-03-01T21:43:30;8.60;93.10
70548;DHT22;58099;43.406;3.698;2023-03-01T21:45:56;8.60;93.20
70548;DHT22;58099;43.406;3.698;2023-03-01T21:48:24;8.70;93.70
70548;DHT22;58099;43.406;3.698;2023-03-01T21:50:54;8.60;93.80
70548;DHT22;58099;43.406;3.698;2023-03-01T21:53:20;8.60;93.80
70548;DHT22;58099;43.406;3.698;2023-03-01T21:55:47;8.60;93.30
70548;DHT22;58099;43.406;3.698;2023-03-01T21:58:12;8.50;94.00
70548;DHT22;58099;43.406;3.698;2023-03-01T22:00:38;8.40;94.30
70548;DHT22;58099;43.406;3.698;2023-03-01T22:03:04;8.30;94.60
70548;DHT22;58099;43.406;3.698;2023-03-01T22:05:30;8.30;94.80
70548;DHT22;58099;43.406;3.698;2023-03-01T22:07:55;8.20;94.90
70548;DHT22;58099;43.406;3.698;2023-03-01T22:10:21;8.30;94.90
70548;DHT22;58099;43.406;3.698;2023-03-01T22:12:56;8.20;94.70
70548;DHT22;58099;43.406;3.698;2023-03-01T22:15:22;8.20;94.00
70548;DHT22;58099;43.406;3.698;2023-03-01T22:17:49;8.20;93.90
70548;DHT22;58099;43.406;3.698;2023-03-01T22:20:15;8.20;93.80
70548;DHT22;58099;43.406;3.698;2023-03-01T22:22:41;8.20;94.00
70548;DHT22;58099;43.406;3.698;2023-03-01T22:25:08;8.10;93.80
70548;DHT22;58099;43.406;3.698;2023-03-01T22:27:35;8.10;93.90
70548;DHT22;58099;43.406;3.698;2023-03-01T22:30:07;8.00;94.00
70548;DHT22;58099;43.406;3.698;2023-03-01T22:32:33;8.00;94.50
70548;DHT22;58099;43.406;3.698;2023-03-01T22:34:59;8.10;94.40
70548;DHT22;58099;43.406;3.698;2023-03-01T22:37:25;8.00;94.40
70548;DHT22;58099;43.406;3.698;2023-03-01T22:39:51;7.90;94.50
70548;DHT22;58099;43.406;3.698;2023-03-01T22:42:17;7.80;94.80
70548;DHT22;58099;43.406;3.698;2023-03-01T22:44:43;7.80;95.00
70548;DHT22;58099;43.406;3.698;2023-03-01T22:47:08;7.80;95.10
70548;DHT22;58099;43.406;3.698;2023-03-01T22:49:34;7.70;95.00
70548;DHT22;58099;43.406;3.698;2023-03-01T22:52:00;7.70;95.20
